createdAt,value
2018-05-04T00:01:05.944Z,99934.83
2018-05-04T00:07:10.307Z,99936.90
2018-05-04T00:13:15.409Z,99947.82
2018-05-04T00:19:20.099Z,99959.70
2018-05-04T00:25:24.450Z,99954.88
2018-05-04T00:31:29.660Z,99959.84
2018-05-04T00:37:33.997Z,99958.33
2018-05-04T00:43:39.133Z,99963.52
2018-05-04T00:49:43.568Z,99964.50
2018-05-04T00:55:47.925Z,99987.36
2018-05-04T01:01:52.661Z,100004.11
2018-05-04T01:07:57.008Z,100004.48
2018-05-04T01:14:02.132Z,99995.98
2018-05-04T01:20:06.485Z,100002.38
2018-05-04T01:26:10.909Z,100002.77
2018-05-04T01:32:15.282Z,100002.56
2018-05-04T01:38:20.451Z,100015.48
2018-05-04T01:44:25.007Z,100017.25
2018-05-04T01:50:29.447Z,100014.20
2018-05-04T01:56:33.878Z,100022.50
2018-05-04T02:02:38.327Z,100032.74
2018-05-04T02:08:43.554Z,100043.27
2018-05-04T02:14:47.917Z,100032.09
2018-05-04T02:20:53.058Z,100045.82
2018-05-04T02:26:57.574Z,100045.31
2018-05-04T02:33:02.783Z,100042.23
2018-05-04T02:39:07.153Z,100047.17
2018-05-04T02:45:11.614Z,100062.91
2018-05-04T02:51:16.895Z,100065.42
2018-05-04T02:57:22.015Z,100054.16
2018-05-04T03:03:27.152Z,100057.73
2018-05-04T03:09:31.503Z,100047.76
2018-05-04T03:15:35.853Z,100053.77
2018-05-04T03:21:41.059Z,100057.53
2018-05-04T03:27:45.424Z,100057.80
2018-05-04T03:33:49.920Z,100052.40
2018-05-04T03:39:54.429Z,100051.01
2018-05-04T03:45:58.852Z,100063.03
2018-05-04T03:52:03.998Z,100056.17
2018-05-04T03:58:26.196Z,100062.30
2018-05-04T04:04:30.651Z,100082.59
2018-05-04T04:10:35.036Z,100087.95
2018-05-04T04:16:39.457Z,100080.57
2018-05-04T04:22:44.591Z,100090.39
2018-05-04T04:28:50.721Z,100080.47
2018-05-04T04:34:56.001Z,100100.34
2018-05-04T04:41:01.998Z,100095.41
2018-05-04T04:47:06.439Z,100099.81
2018-05-04T04:53:10.834Z,100106.08
2018-05-04T04:59:15.933Z,100103.28
2018-05-04T05:05:20.749Z,100106.34
2018-05-04T05:11:25.323Z,100096.15
2018-05-04T05:17:30.485Z,100098.94
2018-05-04T05:23:34.856Z,100107.45
2018-05-04T05:29:39.966Z,100106.98
2018-05-04T05:35:44.334Z,100102.88
2018-05-04T05:41:49.620Z,100107.59
2018-05-04T05:47:54.445Z,100121.87
2018-05-04T05:53:58.833Z,100131.59
2018-05-04T06:00:03.196Z,100128.70
2018-05-04T06:06:07.611Z,100127.94
2018-05-04T06:12:11.949Z,100134.53
2018-05-04T06:18:16.390Z,100142.59
2018-05-04T06:24:21.584Z,100147.39
2018-05-04T06:30:26.725Z,100162.61
2018-05-04T06:36:31.115Z,100160.14
2018-05-04T06:42:35.498Z,100163.73
2018-05-04T06:48:39.869Z,100165.67
2018-05-04T06:54:44.248Z,100169.12
2018-05-04T07:00:48.719Z,100175.51
2018-05-04T07:06:53.189Z,100172.20
2018-05-04T07:12:57.582Z,100183.79
2018-05-04T07:19:02.836Z,100183.09
2018-05-04T07:25:07.223Z,100185.05
2018-05-04T07:31:11.593Z,100177.62
2018-05-04T07:37:15.957Z,100173.52
2018-05-04T07:43:20.639Z,100159.12
2018-05-04T07:49:25.802Z,100162.92
2018-05-04T07:55:30.171Z,100153.13
2018-05-04T08:01:34.529Z,100163.47
2018-05-04T08:07:39.663Z,100164.38
2018-05-04T08:13:44.015Z,100166.88
2018-05-04T08:19:48.395Z,100163.77
2018-05-04T08:25:52.829Z,100159.95
2018-05-04T08:31:57.250Z,100163.13
2018-05-04T08:38:01.618Z,100161.75
2018-05-04T08:44:05.990Z,100149.03
2018-05-04T08:50:10.344Z,100146.42
2018-05-04T08:56:15.497Z,100144.11
2018-05-04T09:02:20.077Z,100141.09
2018-05-04T09:08:25.263Z,100139.63
2018-05-04T09:14:29.624Z,100139.84
2018-05-04T09:20:33.986Z,100136.95
2018-05-04T09:26:38.360Z,100143.00
2018-05-04T09:32:42.733Z,100134.73
2018-05-04T09:38:47.102Z,100136.82
2018-05-04T09:44:51.472Z,100136.97
2018-05-04T09:50:55.960Z,100140.82
2018-05-04T09:57:00.328Z,100130.19
2018-05-04T10:03:05.561Z,100117.50
2018-05-04T10:09:10.014Z,100113.33
2018-05-04T10:15:14.376Z,100107.88
2018-05-04T10:21:19.123Z,100105.53
2018-05-04T10:27:23.906Z,100095.25
2018-05-04T10:33:28.334Z,100097.44
2018-05-04T10:39:32.723Z,100077.86
2018-05-04T10:45:37.172Z,100073.79
2018-05-04T10:51:41.566Z,100077.28
2018-05-04T10:57:45.946Z,100061.10
2018-05-04T11:03:50.951Z,100068.31
2018-05-04T11:09:55.393Z,100064.10
2018-05-04T11:15:59.863Z,100062.66
2018-05-04T11:22:04.294Z,100061.58
2018-05-04T11:28:08.684Z,100063.30
2018-05-04T11:34:13.036Z,100072.34
2018-05-04T11:40:17.534Z,100067.64
2018-05-04T11:46:22.968Z,100070.17
2018-05-04T11:52:27.350Z,100072.03
2018-05-04T11:58:31.719Z,100063.41
2018-05-04T12:04:36.111Z,100071.39
2018-05-04T12:10:40.642Z,100069.67
2018-05-04T12:16:45.179Z,100064.62
2018-05-04T12:22:49.864Z,100068.59
2018-05-04T12:28:54.275Z,100076.23
2018-05-04T12:34:58.630Z,100076.95
2018-05-04T12:41:03.070Z,100075.52
2018-05-04T12:47:07.487Z,100074.94
2018-05-04T12:53:11.817Z,100071.89
2018-05-04T12:59:16.190Z,100069.30
2018-05-04T13:05:20.835Z,100069.76
2018-05-04T13:11:25.299Z,100063.41
2018-05-04T13:17:29.756Z,100054.97
2018-05-04T13:23:34.842Z,100049.66
2018-05-04T13:29:39.216Z,100045.04
2018-05-04T13:35:43.572Z,100036.92
2018-05-04T13:41:47.938Z,100042.81
2018-05-04T13:47:52.367Z,100050.48
2018-05-04T13:53:56.827Z,100042.41
2018-05-04T14:00:01.260Z,100038.45
2018-05-04T14:06:05.620Z,100033.33
2018-05-04T14:12:11.079Z,100026.02
2018-05-04T14:18:15.438Z,100020.07
2018-05-04T14:24:20.072Z,100021.75
2018-05-04T14:30:25.223Z,100023.50
2018-05-04T14:36:29.577Z,100032.49
2018-05-04T14:42:33.938Z,100023.76
2018-05-04T14:48:38.407Z,100034.67
2018-05-04T14:54:43.539Z,100033.72
2018-05-04T15:00:47.891Z,100044.17
2018-05-04T15:06:52.412Z,100032.80
2018-05-04T15:12:56.897Z,100025.55
2018-05-04T15:19:01.262Z,100034.72
2018-05-04T15:25:05.720Z,100033.33
2018-05-04T15:31:10.009Z,100029.57
2018-05-04T15:37:15.356Z,100029.63
2018-05-04T15:43:19.796Z,100034.28
2018-05-04T15:49:24.267Z,100027.83
2018-05-04T15:55:28.665Z,100029.91
2018-05-04T16:01:33.795Z,100036.05
2018-05-04T16:07:38.151Z,100037.77
2018-05-04T16:13:42.604Z,100036.86
2018-05-04T16:19:46.895Z,100044.17
2018-05-04T16:25:51.291Z,100044.39
2018-05-04T16:31:55.718Z,100040.73
2018-05-04T16:38:00.093Z,100037.34
2018-05-04T16:44:04.474Z,100040.37
2018-05-04T16:50:09.593Z,100041.91
2018-05-04T16:56:13.975Z,100045.69
2018-05-04T17:02:18.352Z,100050.20
2018-05-04T17:08:23.300Z,100057.98
2018-05-04T17:14:27.677Z,100060.87
2018-05-04T17:20:32.067Z,100062.80
2018-05-04T17:26:37.197Z,100065.23
2018-05-04T17:32:41.599Z,100066.14
2018-05-04T17:38:46.004Z,100074.71
2018-05-04T17:44:51.710Z,100079.00
2018-05-04T17:50:56.940Z,100079.18
2018-05-04T17:57:01.287Z,100089.13
2018-05-04T18:03:06.430Z,100091.63
2018-05-04T18:09:10.795Z,100099.70
2018-05-04T18:15:15.272Z,100103.38
2018-05-04T18:21:19.841Z,100115.80
2018-05-04T18:27:24.260Z,100119.84
2018-05-04T18:33:28.835Z,100134.97
2018-05-04T18:39:33.228Z,100138.25
2018-05-04T18:45:37.648Z,100155.38
2018-05-04T18:51:42.010Z,100163.93
2018-05-04T18:57:46.467Z,100179.70
2018-05-04T19:03:51.641Z,100188.72
2018-05-04T19:09:56.004Z,100196.80
2018-05-04T19:16:01.881Z,100211.02
2018-05-04T19:22:06.248Z,100217.59
2018-05-04T19:28:10.776Z,100229.34
2018-05-04T19:34:15.151Z,100233.02
2018-05-04T19:40:19.682Z,100241.73
2018-05-04T19:46:24.238Z,100253.41
2018-05-04T19:52:29.023Z,100261.80
2018-05-04T19:58:33.544Z,100269.70
2018-05-04T20:04:37.938Z,100274.53
2018-05-04T20:10:42.363Z,100283.95
2018-05-04T20:16:46.762Z,100280.67
2018-05-04T20:22:51.469Z,100284.48
2018-05-04T20:28:56.073Z,100280.97
2018-05-04T20:35:00.408Z,100286.06
2018-05-04T20:41:04.800Z,100281.78
2018-05-04T20:47:09.152Z,100280.08
2018-05-04T20:53:13.509Z,100271.22
2018-05-04T20:59:17.889Z,100279.92
2018-05-04T21:05:22.393Z,100280.91
2018-05-04T21:11:26.780Z,100273.73
2018-05-04T21:17:31.211Z,100277.51
2018-05-04T21:23:35.685Z,100291.45
2018-05-04T21:29:40.045Z,100283.25
2018-05-04T21:35:44.416Z,100302.80
2018-05-04T21:41:48.789Z,100309.08
2018-05-04T21:47:53.467Z,100306.80
2018-05-04T21:53:57.852Z,100302.61
2018-05-04T22:00:02.231Z,100311.61
2018-05-04T22:06:06.621Z,100305.58
2018-05-04T22:12:10.987Z,100311.05
2018-05-04T22:18:15.355Z,100312.86
2018-05-04T22:24:20.000Z,100320.40
2018-05-04T22:30:24.636Z,100332.30
2018-05-04T22:36:28.981Z,100326.44
2018-05-04T22:42:34.111Z,100333.24
2018-05-04T22:48:38.479Z,100333.83
2018-05-04T22:54:42.935Z,100334.75
2018-05-04T23:00:47.317Z,100335.61
2018-05-04T23:06:52.495Z,100338.47
2018-05-04T23:12:56.868Z,100344.45
2018-05-04T23:19:02.135Z,100343.06
2018-05-04T23:25:06.549Z,100342.11
2018-05-04T23:31:10.984Z,100339.20
2018-05-04T23:37:16.135Z,100341.84
2018-05-04T23:43:21.330Z,100348.53
2018-05-04T23:49:25.710Z,100349.39
2018-05-04T23:55:30.085Z,100344.69
